ADDS METAR Data INFO
IDs: Format: Raw Decoded Include TAF

Data at: 0212 UTC 17 Aug 2018

PAPG 170156Z 05003KT 10SM BKN070 15/09 A3014 RMK AO2 SLP210 T01500089
PAPG 170056Z 08005KT 9SM BKN060 16/08 A3014 RMK AO2 SLP210 T01560078
PAPG 162356Z 08003KT 9SM BKN060 16/08 A3014 RMK AO2 SLP209 T01560083 10172 20111 51000
PAPG 162256Z 05006KT 10SM BKN070 17/08 A3014 RMK AO2 SLP209 T01670078
PAPG 162156Z 07005KT 10SM BKN065 16/09 A3014 RMK AO2 SLP209 T01610089
PAPG 162056Z 05006KT 10SM FEW060 14/08 A3014 RMK AO2 SLP209 T01440078 50005
PAPG 161956Z 09006KT 10SM SCT070 14/08 A3014 RMK AO2 SLP209 T01390078
PAPG 161856Z 08003KT 10SM CLR 14/08 A3013 RMK AO2 SLP207 T01390083
PAPG 161756Z 09005KT 10SM CLR 11/08 A3012 RMK AO2 SLP204 T01110083 10128 20072 51004
PAPG 161656Z 00000KT 10SM CLR 11/08 A3012 RMK AO2 SLP204 T01060083
PAPG 161556Z 00000KT 10SM BKN060 09/08 A3012 RMK AO2 SLP202 T00940083
PAPG 161456Z 00000KT 10SM CLR 08/08 A3011 RMK AO2 SLP201 T00830078 53008
PAPG 161356Z AUTO 00000KT 10SM CLR 07/07 A3010 RMK AO2 SLP195 T00720067
PAPG 161256Z AUTO 00000KT 10SM CLR 08/07 A3009 RMK AO2 SLP194 T00830072
PAPG 161156Z AUTO 00000KT 10SM OVC055 08/07 A3009 RMK AO2 SLP193 T00830067 10117 20078 53001
PAPG 161056Z AUTO 00000KT 10SM CLR 08/07 A3008 RMK AO2 SLP191 T00780072
PAPG 160956Z AUTO 00000KT 10SM OVC055 09/08 A3009 RMK AO2 SLP192 T00890078
PAPG 160856Z AUTO 22003KT 10SM OVC055 09/08 A3009 RMK AO2 SLP192 T00940078 401670089 51003
PAPG 160756Z AUTO 21003KT 10SM OVC055 10/08 A3009 RMK AO2 SLP192 T01000078
PAPG 160656Z AUTO 00000KT 10SM OVC055 09/08 A3009 RMK AO2 SLP192 T00940078
PAPG 160556Z 16003KT 10SM SCT055 12/07 A3008 RMK AO2 SLP189 T01170072 10150 20111 50001
PAPG 160456Z 08003KT 10SM BKN055 12/08 A3009 RMK AO2 SLP191 T01170078
PAPG 160356Z 08004KT 10SM BKN055 12/08 A3008 RMK AO2 SLP189 T01220083
PAPG 160256Z 10004KT 10SM BKN065 13/08 A3008 RMK AO2 SLP188 T01280078 56008
PAPG 160156Z 07004KT 10SM BKN060 13/09 A3008 RMK AO2 SLP189 T01330089
PAPG 160101Z 09003KT 10SM SCT038 BKN060 14/09 A3009 RMK AO2
PAPG 160056Z 07003KT 10SM OVC060 14/09 A3009 RMK AO2 SLP193 T01390089
PAPG 152356Z 07004KT 10SM SCT038 BKN060 15/08 A3010 RMK AO2 SLP196 T01500083 10167 20122 56006
PAPG 152256Z 04004KT 10SM SCT036 BKN055 16/08 A3010 RMK AO2 SLP196 T01560083
PAPG 152156Z 08005KT 10SM BKN060 15/09 A3011 RMK AO2 SLP201 T01500089
PAPG 152056Z 08005KT 10SM SCT035 BKN060 15/08 A3012 RMK AO2 SLP202 T01500083 58001
PAPG 152020Z 05004KT 10SM SCT035 SCT060 16/09 A3012 RMK AO2
PAPG 152003Z COR 07003KT 10SM SCT035 SCT060 14/11 A3012 RMK AO2 VIS 1V5
PAPG 151956Z 08004KT 10SM SCT030 BKN060 13/10 A3012 RMK AO2 SLP203 T01280100
PAPG 151936Z 08005KT 10SM SCT030 BKN060 13/10 A3012 RMK AO2
PAPG 151925Z 09005KT 3/4SM HZ BKN060 13/09 A3012 RMK AO2
PAPG 151920Z 10006KT 1 1/2SM HZ OVC060 14/10 A3012 RMK AO2
PAPG 151856Z 08004KT 4SM HZ OVC060 13/10 A3012 RMK AO2 SLP204 T01330100
PAPG 151756Z 05004KT 10SM OVC060 13/10 A3012 RMK AO2 SLP203 T01330100 10133 20094 51007
PAPG 151656Z 01003KT 10SM FEW032 OVC060 12/10 A3012 RMK AO2 SLP201 T01220100
PAPG 151556Z 00000KT 10SM OVC060 11/10 A3011 RMK AO2 SLP199 T01110100
PAPG 151456Z 00000KT 10SM BKN060 11/09 A3010 RMK AO2 SLP197 T01060094 53008